Harlan Municipal Airport
Tuesday 11:35 AM
Weather Sunny
Temperature 82°
Dew Point 59°
Feels Like 82°
Relative Humidity 45
%
Visibility 10
mi
Pressure 1012.2
mb
Wind Direction SE
Wind Speed 12
mph
Last Hour Precip 0.00
"
KHNR 281635Z AUTO 13010KT 10SM CLR 28/15 A2989 RMK A01

Recent Observations

Time Present Weather Temp DP Feels RH% Vsby Pressure Ceiling Direction Speed Gust 1h Precip
11:35AM
VFR
82° 59° 82° 45
%
10
mi
1012.2
mb
None SE 12
mph
0.00"
KHNR 281635Z AUTO 13010KT 10SM CLR 28/15 A2989 RMK A01
11:15AM
VFR
81° 61° 81° 51
%
10
mi
1012.2
mb
None ESE 8
mph
0.00"
KHNR 281615Z AUTO 12007KT 10SM CLR 27/16 A2989 RMK A01
10:55AM
VFR
77° 63° 61
%
10
mi
1012.2
mb
None SE 5
mph
0.00"
KHNR 281555Z AUTO 13004KT 10SM CLR 25/17 A2989 RMK A01
10:35AM
VFR
75° 63° 65
%
10
mi
1012.5
mb
None SE 6
mph
0.00"
KHNR 281535Z AUTO 14005KT 10SM CLR 24/17 A2990 RMK A01
10:15AM
VFR
73° 64° 73
%
10
mi
1012.5
mb
None SE 6
mph
0.00"
KHNR 281515Z AUTO 13005KT 10SM CLR 23/18 A2990 RMK A01
9:55AM
VFR
70° 64° 83
%
10
mi
1012.5
mb
None ESE 6
mph
0.00"
KHNR 281455Z AUTO 11005KT 10SM CLR 21/18 A2990 RMK A01
9:35AM
VFR
68° 64° 88
%
10
mi
1012.5
mb
None VRB 3
mph
0.00"
KHNR 281435Z AUTO VRB03KT 10SM CLR 20/18 A2990 RMK A01
9:15AM
VFR
66° 64° 94
%
10
mi
1012.5
mb
None SE 5
mph
0.00"
KHNR 281415Z AUTO 13004KT 10SM CLR 19/18 A2990 RMK A01
8:55AM
VFR
63° 63° 100
%
10
mi
1012.5
mb
None Calm 0.00"
KHNR 281355Z AUTO 00000KT 10SM CLR 17/17 A2990 RMK A01
8:35AM
VFR
61° 61° 100
%
10
mi
1012.2
mb
None Calm 0.00"
KHNR 281335Z AUTO 00000KT 10SM CLR 16/16 A2989 RMK A01
8:15AM
VFR
57° 57° 100
%
10
mi
1012.2
mb
None Calm 0.00"
KHNR 281315Z AUTO 00000KT 10SM CLR 14/14 A2989 RMK A01
7:55AM
VFR
54° 54° 100
%
10
mi
1012.5
mb
None Calm 0.00"
KHNR 281255Z AUTO 00000KT 10SM CLR 12/12 A2990 RMK A01
7:35AM
VFR
52° 52° 100
%
10
mi
1012.5
mb
None Calm 0.00"
KHNR 281235Z AUTO 00000KT 10SM CLR 11/11 A2990 RMK A01
7:15AM
VFR
54° 54° 100
%
10
mi
1012.2
mb
None Calm 0.00"
KHNR 281215Z AUTO 00000KT 10SM CLR 12/12 A2989 RMK A01
6:55AM
VFR
52° 52° 100
%
10
mi
1012.2
mb
None NNE 3
mph
0.00"
KHNR 281155Z AUTO 02003KT 10SM CLR 11/11 A2989 RMK A01
6:35AM
VFR
55° 55° 100
%
10
mi
1012.2
mb
None Calm 0.00"
KHNR 281135Z AUTO 00000KT 10SM CLR 13/13 A2989 RMK A01
6:15AM
VFR
52° 52° 100
%
10
mi
1011.9
mb
None Calm 0.00"
KHNR 281115Z AUTO 00000KT 10SM CLR 11/11 A2988 RMK A01
5:55AM
VFR
52° 52° 100
%
10
mi
1011.9
mb
None Calm 0.00"
KHNR 281055Z AUTO 00000KT 10SM CLR 11/11 A2988 RMK A01
5:35AM
VFR
54° 54° 100
%
10
mi
1011.9
mb
None Calm 0.00"
KHNR 281035Z AUTO 00000KT 10SM CLR 12/12 A2988 RMK A01
5:15AM
VFR
54° 54° 100
%
10
mi
1011.9
mb
None Calm 0.00"
KHNR 281015Z AUTO 00000KT 10SM CLR 12/12 A2988 RMK A01
Click here to show this page without METARs/TAFs included